Date,TemperatureHighF,TemperatureAvgF,TemperatureLowF,DewpointHighF,DewpointAvgF,DewpointLowF,HumidityHigh,HumidityAvg,HumidityLow,PressureMaxIn,PressureMinIn,WindSpeedMaxMPH,WindSpeedAvgMPH,GustSpeedMaxMPH,PrecipitationSumIn
2013-10-1,77,62,50,63,56,49,100,85,49,30.18,30.06,10,1,11,0.08
2013-10-2,78,61,50,66,57,50,98,87,53,30.20,30.09,10,1,10,0.03
2013-10-3,79,64,55,65,59,54,98,86,53,30.17,30.06,10,1,11,0.01
2013-10-4,82,66,55,68,61,54,98,86,56,30.18,30.08,11,1,13,0.00
2013-10-5,82,66,56,67,61,54,99,86,54,30.17,30.03,12,1,13,0.00
2013-10-6,79,67,56,66,61,55,98,81,59,30.06,29.87,17,2,19,0.01
2013-10-7,70,59,48,64,55,46,97,89,68,30.06,29.78,12,1,14,0.30
2013-10-8,69,54,44,54,49,43,97,85,56,30.23,30.05,10,1,11,0.04
2013-10-9,74,55,43,59,50,42,97,84,56,30.26,30.12,10,1,13,0.01
2013-10-10,72,56,45,57,51,44,98,84,55,30.16,30.05,14,1,17,0.01
2013-10-11,75,59,46,59,52,45,97,81,46,30.09,29.98,18,1,18,0.00
2013-10-12,70,60,49,61,56,48,97,88,69,30.12,30.01,11,1,15,0.00
2013-10-13,71,63,57,64,60,56,97,90,75,30.20,30.12,9,1,10,0.01
2013-10-14,70,62,54,62,59,53,98,91,77,30.23,30.12,10,1,11,0.00
2013-10-15,69,59,51,60,55,49,97,87,69,30.19,30.05,11,1,12,0.02
2013-10-16,70,59,49,61,54,48,96,86,65,30.08,29.96,8,1,9,0.02
2013-10-17,73,62,56,64,59,52,98,90,73,29.98,29.81,16,1,17,0.02
2013-10-18,70,56,45,55,50,44,97,80,53,30.04,29.92,9,1,11,0.01
2013-10-19,62,55,49,56,50,45,96,85,61,29.98,29.86,14,1,16,0.00
2013-10-20,66,49,35,45,40,30,96,76,29,30.12,29.98,11,1,11,0.00
2013-10-21,68,50,36,53,44,34,96,82,44,30.19,30.02,12,1,14,0.00
2013-10-22,69,55,46,53,49,45,97,82,48,30.05,29.83,13,1,15,0.01
2013-10-23,54,46,37,48,37,28,100,74,54,30.09,29.77,23,2,28,0.00
2013-10-24,51,41,31,38,33,28,92,76,56,30.24,30.09,12,1,14,0.01
2013-10-25,47,37,27,37,28,25,91,73,48,30.43,30.23,17,2,18,0.00
2013-10-26,58,40,22,41,29,20,100,71,31,30.41,30.14,11,1,14,0.00
2013-10-27,66,55,46,50,44,38,91,69,54,30.17,30.07,13,1,13,0.00
2013-10-28,61,53,44,56,50,43,97,92,75,30.28,30.13,8,0,9,0.04
2013-10-29,68,55,45,55,49,44,98,84,48,30.37,30.24,11,1,11,0.00
2013-10-30,74,60,52,59,54,50,94,81,53,30.30,30.16,11,1,11,0.00
2013-10-31,66,62,55,60,56,52,94,79,68,30.18,29.79,23,4,29,0.00